sensor_id;sensor_type;location;lat;lon;timestamp;temperature;humidity
10660;DHT22;5378;53.206;13.316;2023-07-02T00:00:30;18.60;99.90
10660;DHT22;5378;53.206;13.316;2023-07-02T00:03:17;18.70;99.90
10660;DHT22;5378;53.206;13.316;2023-07-02T00:06:07;18.50;99.90
10660;DHT22;5378;53.206;13.316;2023-07-02T00:08:54;18.30;99.90
10660;DHT22;5378;53.206;13.316;2023-07-02T00:11:43;18.30;99.90
10660;DHT22;5378;53.206;13.316;2023-07-02T00:14:31;18.30;99.90
10660;DHT22;5378;53.206;13.316;2023-07-02T00:17:19;18.30;99.90
10660;DHT22;5378;53.206;13.316;2023-07-02T00:20:07;18.30;99.90
10660;DHT22;5378;53.206;13.316;2023-07-02T00:23:01;18.20;99.90
10660;DHT22;5378;53.206;13.316;2023-07-02T00:25:48;18.30;99.90
10660;DHT22;5378;53.206;13.316;2023-07-02T00:28:35;18.20;99.90
10660;DHT22;5378;53.206;13.316;2023-07-02T00:31:24;18.30;99.90
10660;DHT22;5378;53.206;13.316;2023-07-02T00:34:11;18.30;99.90
10660;DHT22;5378;53.206;13.316;2023-07-02T00:36:59;18.30;99.90
10660;DHT22;5378;53.206;13.316;2023-07-02T00:39:46;18.30;99.90
10660;DHT22;5378;53.206;13.316;2023-07-02T00:42:34;18.20;99.90
10660;DHT22;5378;53.206;13.316;2023-07-02T00:45:21;18.20;99.90
10660;DHT22;5378;53.206;13.316;2023-07-02T00:48:10;18.20;99.90
10660;DHT22;5378;53.206;13.316;2023-07-02T00:50:57;18.10;99.90
10660;DHT22;5378;53.206;13.316;2023-07-02T00:53:44;18.10;99.90
10660;DHT22;5378;53.206;13.316;2023-07-02T00:56:31;18.10;99.90
10660;DHT22;5378;53.206;13.316;2023-07-02T00:59:19;18.10;99.90
10660;DHT22;5378;53.206;13.316;2023-07-02T01:02:06;18.00;99.90
10660;DHT22;5378;53.206;13.316;2023-07-02T01:04:54;17.90;99.90
10660;DHT22;5378;53.206;13.316;2023-07-02T01:07:44;17.80;99.90
10660;DHT22;5378;53.206;13.316;2023-07-02T01:10:31;17.60;99.90
10660;DHT22;5378;53.206;13.316;2023-07-02T01:13:21;17.50;99.90
10660;DHT22;5378;53.206;13.316;2023-07-02T01:16:08;17.30;99.90
10660;DHT22;5378;53.206;13.316;2023-07-02T01:18:55;17.20;99.90
10660;DHT22;5378;53.206;13.316;2023-07-02T01:21:44;17.00;99.90
10660;DHT22;5378;53.206;13.316;2023-07-02T01:24:32;17.00;99.90
10660;DHT22;5378;53.206;13.316;2023-07-02T01:27:20;16.90;99.90
10660;DHT22;5378;53.206;13.316;2023-07-02T01:30:08;16.80;99.90
10660;DHT22;5378;53.206;13.316;2023-07-02T01:32:56;16.90;99.90
10660;DHT22;5378;53.206;13.316;2023-07-02T01:35:44;16.80;99.90
10660;DHT22;5378;53.206;13.316;2023-07-02T01:38:32;16.80;99.90
10660;DHT22;5378;53.206;13.316;2023-07-02T01:41:19;16.70;99.90
10660;DHT22;5378;53.206;13.316;2023-07-02T01:44:06;16.70;99.90
10660;DHT22;5378;53.206;13.316;2023-07-02T01:46:53;16.60;99.90
10660;DHT22;5378;53.206;13.316;2023-07-02T01:49:42;16.60;99.90
10660;DHT22;5378;53.206;13.316;2023-07-02T01:52:29;16.50;99.90
10660;DHT22;5378;53.206;13.316;2023-07-02T01:55:21;16.40;99.90
10660;DHT22;5378;53.206;13.316;2023-07-02T01:58:09;16.40;99.90
10660;DHT22;5378;53.206;13.316;2023-07-02T02:00:56;16.30;99.90
10660;DHT22;5378;53.206;13.316;2023-07-02T02:03:45;16.30;99.90
10660;DHT22;5378;53.206;13.316;2023-07-02T02:06:31;16.20;99.90
10660;DHT22;5378;53.206;13.316;2023-07-02T02:09:18;16.20;99.90
10660;DHT22;5378;53.206;13.316;2023-07-02T02:12:07;16.20;99.90
10660;DHT22;5378;53.206;13.316;2023-07-02T02:14:54;16.20;99.90
10660;DHT22;5378;53.206;13.316;2023-07-02T02:17:41;16.10;99.90
10660;DHT22;5378;53.206;13.316;2023-07-02T02:20:28;16.10;99.90
10660;DHT22;5378;53.206;13.316;2023-07-02T02:23:15;16.10;99.90
10660;DHT22;5378;53.206;13.316;2023-07-02T02:26:02;16.00;99.90
10660;DHT22;5378;53.206;13.316;2023-07-02T02:28:51;16.10;99.90
10660;DHT22;5378;53.206;13.316;2023-07-02T02:31:38;16.00;99.90
10660;DHT22;5378;53.206;13.316;2023-07-02T02:34:26;16.00;99.90
10660;DHT22;5378;53.206;13.316;2023-07-02T02:37:15;15.90;99.90
10660;DHT22;5378;53.206;13.316;2023-07-02T02:40:03;15.90;99.90
10660;DHT22;5378;53.206;13.316;2023-07-02T02:42:51;15.80;99.90
10660;DHT22;5378;53.206;13.316;2023-07-02T02:45:40;15.80;99.90
10660;DHT22;5378;53.206;13.316;2023-07-02T02:48:27;15.80;99.90
10660;DHT22;5378;53.206;13.316;2023-07-02T02:51:15;15.80;99.90
10660;DHT22;5378;53.206;13.316;2023-07-02T02:54:02;15.80;99.90
10660;DHT22;5378;53.206;13.316;2023-07-02T02:56:49;15.90;99.90
10660;DHT22;5378;53.206;13.316;2023-07-02T02:59:36;16.00;99.90
10660;DHT22;5378;53.206;13.316;2023-07-02T03:02:25;16.00;99.90
10660;DHT22;5378;53.206;13.316;2023-07-02T03:05:12;15.90;99.90
10660;DHT22;5378;53.206;13.316;2023-07-02T03:08:02;16.00;99.90
10660;DHT22;5378;53.206;13.316;2023-07-02T03:10:49;16.00;99.90
10660;DHT22;5378;53.206;13.316;2023-07-02T03:13:36;16.10;99.90
10660;DHT22;5378;53.206;13.316;2023-07-02T03:16:24;16.20;99.90
10660;DHT22;5378;53.206;13.316;2023-07-02T03:19:12;16.30;99.90
10660;DHT22;5378;53.206;13.316;2023-07-02T03:22:00;16.70;99.90
10660;DHT22;5378;53.206;13.316;2023-07-02T03:24:47;17.00;99.90
10660;DHT22;5378;53.206;13.316;2023-07-02T03:27:35;17.00;99.90
10660;DHT22;5378;53.206;13.316;2023-07-02T03:30:22;17.20;99.90
10660;DHT22;5378;53.206;13.316;2023-07-02T03:33:09;17.30;99.90
10660;DHT22;5378;53.206;13.316;2023-07-02T03:35:58;17.50;99.90
10660;DHT22;5378;53.206;13.316;2023-07-02T03:38:45;17.70;99.90
10660;DHT22;5378;53.206;13.316;2023-07-02T03:41:32;17.70;99.90
10660;DHT22;5378;53.206;13.316;2023-07-02T03:44:19;17.70;99.90
10660;DHT22;5378;53.206;13.316;2023-07-02T03:47:06;17.40;99.90
10660;DHT22;5378;53.206;13.316;2023-07-02T03:49:54;17.10;99.90
10660;DHT22;5378;53.206;13.316;2023-07-02T03:52:42;17.10;99.90
10660;DHT22;5378;53.206;13.316;2023-07-02T03:55:30;17.10;99.90
10660;DHT22;5378;53.206;13.316;2023-07-02T03:58:17;17.30;99.90
10660;DHT22;5378;53.206;13.316;2023-07-02T04:01:04;18.30;99.90
10660;DHT22;5378;53.206;13.316;2023-07-02T04:03:53;19.80;99.90
10660;DHT22;5378;53.206;13.316;2023-07-02T04:06:41;21.30;99.90
10660;DHT22;5378;53.206;13.316;2023-07-02T04:09:29;22.80;99.90
10660;DHT22;5378;53.206;13.316;2023-07-02T04:12:18;24.10;99.90
10660;DHT22;5378;53.206;13.316;2023-07-02T04:15:07;25.00;99.90
10660;DHT22;5378;53.206;13.316;2023-07-02T04:17:54;25.90;99.90
10660;DHT22;5378;53.206;13.316;2023-07-02T04:20:42;26.30;99.90
10660;DHT22;5378;53.206;13.316;2023-07-02T04:23:29;26.70;99.90
10660;DHT22;5378;53.206;13.316;2023-07-02T04:26:17;26.80;99.90
10660;DHT22;5378;53.206;13.316;2023-07-02T04:29:04;26.30;99.90
10660;DHT22;5378;53.206;13.316;2023-07-02T04:31:52;25.20;99.90
10660;DHT22;5378;53.206;13.316;2023-07-02T04:34:39;23.80;99.90
10660;DHT22;5378;53.206;13.316;2023-07-02T04:37:27;23.20;99.90
10660;DHT22;5378;53.206;13.316;2023-07-02T04:40:14;23.40;99.90
10660;DHT22;5378;53.206;13.316;2023-07-02T04:43:03;23.00;99.90
10660;DHT22;5378;53.206;13.316;2023-07-02T04:45:50;22.30;99.90
10660;DHT22;5378;53.206;13.316;2023-07-02T04:48:37;21.40;99.90
10660;DHT22;5378;53.206;13.316;2023-07-02T04:51:24;20.60;99.90
10660;DHT22;5378;53.206;13.316;2023-07-02T04:54:12;19.90;99.90
10660;DHT22;5378;53.206;13.316;2023-07-02T04:56:59;19.90;99.90
10660;DHT22;5378;53.206;13.316;2023-07-02T04:59:47;19.80;99.90
10660;DHT22;5378;53.206;13.316;2023-07-02T05:02:34;20.30;99.90
10660;DHT22;5378;53.206;13.316;2023-07-02T05:05:21;20.80;99.90
10660;DHT22;5378;53.206;13.316;2023-07-02T05:08:08;21.60;99.90
10660;DHT22;5378;53.206;13.316;2023-07-02T05:10:55;22.60;99.90
10660;DHT22;5378;53.206;13.316;2023-07-02T05:13:42;24.10;99.90
10660;DHT22;5378;53.206;13.316;2023-07-02T05:16:30;25.70;99.90
10660;DHT22;5378;53.206;13.316;2023-07-02T05:19:17;25.20;99.90
10660;DHT22;5378;53.206;13.316;2023-07-02T05:22:04;25.20;99.90
10660;DHT22;5378;53.206;13.316;2023-07-02T05:24:52;26.20;99.90
10660;DHT22;5378;53.206;13.316;2023-07-02T05:27:39;25.50;99.90
10660;DHT22;5378;53.206;13.316;2023-07-02T05:30:26;24.30;99.90
10660;DHT22;5378;53.206;13.316;2023-07-02T05:33:15;23.20;99.90
10660;DHT22;5378;53.206;13.316;2023-07-02T05:36:02;22.10;99.90
10660;DHT22;5378;53.206;13.316;2023-07-02T05:38:49;21.30;99.90
10660;DHT22;5378;53.206;13.316;2023-07-02T05:41:36;20.80;99.90
10660;DHT22;5378;53.206;13.316;2023-07-02T05:44:23;20.30;99.90
10660;DHT22;5378;53.206;13.316;2023-07-02T05:47:10;19.90;99.90
10660;DHT22;5378;53.206;13.316;2023-07-02T05:49:59;19.60;99.90
10660;DHT22;5378;53.206;13.316;2023-07-02T05:52:46;19.40;99.90
10660;DHT22;5378;53.206;13.316;2023-07-02T05:55:33;19.30;99.90
10660;DHT22;5378;53.206;13.316;2023-07-02T05:58:21;19.20;99.90
10660;DHT22;5378;53.206;13.316;2023-07-02T06:01:12;19.20;99.90
10660;DHT22;5378;53.206;13.316;2023-07-02T06:03:59;19.80;99.90
10660;DHT22;5378;53.206;13.316;2023-07-02T06:06:47;22.10;99.90
10660;DHT22;5378;53.206;13.316;2023-07-02T06:09:34;25.00;99.90
10660;DHT22;5378;53.206;13.316;2023-07-02T06:12:22;26.30;99.90
10660;DHT22;5378;53.206;13.316;2023-07-02T06:15:10;26.50;99.90
10660;DHT22;5378;53.206;13.316;2023-07-02T06:17:57;27.80;99.90
10660;DHT22;5378;53.206;13.316;2023-07-02T06:20:46;29.60;99.90
10660;DHT22;5378;53.206;13.316;2023-07-02T06:23:41;30.70;99.90
10660;DHT22;5378;53.206;13.316;2023-07-02T06:26:28;31.50;99.90
10660;DHT22;5378;53.206;13.316;2023-07-02T06:29:15;30.80;99.90
10660;DHT22;5378;53.206;13.316;2023-07-02T06:32:03;31.00;99.90
10660;DHT22;5378;53.206;13.316;2023-07-02T06:34:50;30.70;99.90
10660;DHT22;5378;53.206;13.316;2023-07-02T06:37:37;31.10;99.90
10660;DHT22;5378;53.206;13.316;2023-07-02T06:40:25;31.20;99.90
10660;DHT22;5378;53.206;13.316;2023-07-02T06:43:12;29.70;99.90
10660;DHT22;5378;53.206;13.316;2023-07-02T06:45:59;29.30;99.90
10660;DHT22;5378;53.206;13.316;2023-07-02T06:48:46;29.30;99.90
10660;DHT22;5378;53.206;13.316;2023-07-02T06:51:34;29.90;99.90
10660;DHT22;5378;53.206;13.316;2023-07-02T06:54:21;29.30;99.90
10660;DHT22;5378;53.206;13.316;2023-07-02T06:57:09;28.20;99.90
10660;DHT22;5378;53.206;13.316;2023-07-02T06:59:57;27.80;99.90
10660;DHT22;5378;53.206;13.316;2023-07-02T07:02:45;27.40;99.90
10660;DHT22;5378;53.206;13.316;2023-07-02T07:05:32;26.70;99.90
10660;DHT22;5378;53.206;13.316;2023-07-02T07:08:19;26.10;99.90
10660;DHT22;5378;53.206;13.316;2023-07-02T07:11:06;25.60;99.90
10660;DHT22;5378;53.206;13.316;2023-07-02T07:13:55;25.70;99.90
10660;DHT22;5378;53.206;13.316;2023-07-02T07:16:42;27.40;99.90
10660;DHT22;5378;53.206;13.316;2023-07-02T07:19:30;29.00;99.90
10660;DHT22;5378;53.206;13.316;2023-07-02T07:22:16;30.10;99.90
10660;DHT22;5378;53.206;13.316;2023-07-02T07:25:04;31.00;99.90
10660;DHT22;5378;53.206;13.316;2023-07-02T07:27:51;31.40;99.40
10660;DHT22;5378;53.206;13.316;2023-07-02T07:30:40;31.60;99.40
10660;DHT22;5378;53.206;13.316;2023-07-02T07:33:27;31.80;97.40
10660;DHT22;5378;53.206;13.316;2023-07-02T07:36:14;31.70;98.00
10660;DHT22;5378;53.206;13.316;2023-07-02T07:39:01;31.30;96.00
10660;DHT22;5378;53.206;13.316;2023-07-02T07:41:48;30.80;95.10
10660;DHT22;5378;53.206;13.316;2023-07-02T07:44:35;30.00;96.30
10660;DHT22;5378;53.206;13.316;2023-07-02T07:47:23;30.00;96.40
10660;DHT22;5378;53.206;13.316;2023-07-02T07:50:10;30.80;95.70
10660;DHT22;5378;53.206;13.316;2023-07-02T07:52:57;30.90;94.00
10660;DHT22;5378;53.206;13.316;2023-07-02T07:55:45;30.40;96.00
10660;DHT22;5378;53.206;13.316;2023-07-02T07:58:32;31.00;96.80
10660;DHT22;5378;53.206;13.316;2023-07-02T08:01:18;31.40;94.70
10660;DHT22;5378;53.206;13.316;2023-07-02T08:04:07;31.60;91.60
10660;DHT22;5378;53.206;13.316;2023-07-02T08:06:55;30.50;93.00
10660;DHT22;5378;53.206;13.316;2023-07-02T08:09:42;29.50;92.60
10660;DHT22;5378;53.206;13.316;2023-07-02T08:12:29;28.40;93.40
10660;DHT22;5378;53.206;13.316;2023-07-02T08:15:16;27.60;95.50
10660;DHT22;5378;53.206;13.316;2023-07-02T08:18:04;27.40;93.80
10660;DHT22;5378;53.206;13.316;2023-07-02T08:20:54;28.60;93.90
10660;DHT22;5378;53.206;13.316;2023-07-02T08:23:42;30.10;92.50
10660;DHT22;5378;53.206;13.316;2023-07-02T08:26:29;31.30;89.70
10660;DHT22;5378;53.206;13.316;2023-07-02T08:29:17;32.40;89.10
10660;DHT22;5378;53.206;13.316;2023-07-02T08:32:04;31.80;83.30
10660;DHT22;5378;53.206;13.316;2023-07-02T08:34:51;29.90;88.70
10660;DHT22;5378;53.206;13.316;2023-07-02T08:37:40;30.10;90.00
10660;DHT22;5378;53.206;13.316;2023-07-02T08:40:28;31.10;88.50
10660;DHT22;5378;53.206;13.316;2023-07-02T08:43:15;30.70;87.20
10660;DHT22;5378;53.206;13.316;2023-07-02T08:46:02;30.70;88.80
10660;DHT22;5378;53.206;13.316;2023-07-02T08:48:49;30.50;88.90
10660;DHT22;5378;53.206;13.316;2023-07-02T08:51:36;30.20;89.40
10660;DHT22;5378;53.206;13.316;2023-07-02T08:54:25;30.50;89.50
10660;DHT22;5378;53.206;13.316;2023-07-02T08:57:12;31.10;88.50
10660;DHT22;5378;53.206;13.316;2023-07-02T08:59:59;31.60;86.80
10660;DHT22;5378;53.206;13.316;2023-07-02T09:02:47;31.50;87.50
10660;DHT22;5378;53.206;13.316;2023-07-02T09:05:34;31.30;88.50
10660;DHT22;5378;53.206;13.316;2023-07-02T09:08:24;30.80;84.40
10660;DHT22;5378;53.206;13.316;2023-07-02T09:11:14;30.10;87.10
10660;DHT22;5378;53.206;13.316;2023-07-02T09:14:02;29.30;84.40
10660;DHT22;5378;53.206;13.316;2023-07-02T09:16:49;28.20;84.70
10660;DHT22;5378;53.206;13.316;2023-07-02T09:19:51;27.60;86.70
10660;DHT22;5378;53.206;13.316;2023-07-02T09:22:40;27.10;90.80
10660;DHT22;5378;53.206;13.316;2023-07-02T09:25:34;27.00;89.70
10660;DHT22;5378;53.206;13.316;2023-07-02T09:28:23;25.80;89.50
10660;DHT22;5378;53.206;13.316;2023-07-02T09:31:10;25.50;91.70
10660;DHT22;5378;53.206;13.316;2023-07-02T09:34:01;25.60;91.70
10660;DHT22;5378;53.206;13.316;2023-07-02T09:36:48;25.70;92.80
10660;DHT22;5378;53.206;13.316;2023-07-02T09:39:36;25.70;95.40
10660;DHT22;5378;53.206;13.316;2023-07-02T09:42:25;25.60;93.60
10660;DHT22;5378;53.206;13.316;2023-07-02T09:45:14;25.10;93.10
10660;DHT22;5378;53.206;13.316;2023-07-02T09:48:02;25.00;93.80
10660;DHT22;5378;53.206;13.316;2023-07-02T09:50:50;24.90;96.80
10660;DHT22;5378;53.206;13.316;2023-07-02T09:53:37;25.40;96.50
10660;DHT22;5378;53.206;13.316;2023-07-02T09:56:24;25.40;94.50
10660;DHT22;5378;53.206;13.316;2023-07-02T09:59:12;25.50;95.10
10660;DHT22;5378;53.206;13.316;2023-07-02T10:02:00;25.60;95.20
10660;DHT22;5378;53.206;13.316;2023-07-02T10:04:47;25.60;95.10
10660;DHT22;5378;53.206;13.316;2023-07-02T10:07:40;25.60;94.80
10660;DHT22;5378;53.206;13.316;2023-07-02T10:10:28;25.60;94.90
10660;DHT22;5378;53.206;13.316;2023-07-02T10:13:26;25.80;96.60
10660;DHT22;5378;53.206;13.316;2023-07-02T10:16:13;25.60;94.90
10660;DHT22;5378;53.206;13.316;2023-07-02T10:19:12;25.50;95.10
10660;DHT22;5378;53.206;13.316;2023-07-02T10:22:03;25.50;94.60
10660;DHT22;5378;53.206;13.316;2023-07-02T10:24:54;25.50;94.40
10660;DHT22;5378;53.206;13.316;2023-07-02T10:27:43;25.50;94.00
10660;DHT22;5378;53.206;13.316;2023-07-02T10:30:31;25.30;95.10
10660;DHT22;5378;53.206;13.316;2023-07-02T10:33:19;25.20;94.30
10660;DHT22;5378;53.206;13.316;2023-07-02T10:36:17;24.90;92.80
10660;DHT22;5378;53.206;13.316;2023-07-02T10:39:05;24.50;94.10
10660;DHT22;5378;53.206;13.316;2023-07-02T10:41:52;24.10;95.00
10660;DHT22;5378;53.206;13.316;2023-07-02T10:44:47;24.10;94.80
10660;DHT22;5378;53.206;13.316;2023-07-02T10:47:39;24.10;95.40
10660;DHT22;5378;53.206;13.316;2023-07-02T10:50:26;24.10;95.60
10660;DHT22;5378;53.206;13.316;2023-07-02T10:53:19;24.30;96.90
10660;DHT22;5378;53.206;13.316;2023-07-02T10:56:06;24.40;97.20
10660;DHT22;5378;53.206;13.316;2023-07-02T10:58:54;24.20;96.20
10660;DHT22;5378;53.206;13.316;2023-07-02T11:01:41;24.10;98.30
10660;DHT22;5378;53.206;13.316;2023-07-02T11:04:28;24.40;98.50
10660;DHT22;5378;53.206;13.316;2023-07-02T11:07:22;24.50;97.90
10660;DHT22;5378;53.206;13.316;2023-07-02T11:10:18;24.40;97.30
10660;DHT22;5378;53.206;13.316;2023-07-02T11:13:12;24.50;99.30
10660;DHT22;5378;53.206;13.316;2023-07-02T11:15:59;24.50;96.70
10660;DHT22;5378;53.206;13.316;2023-07-02T11:18:46;24.40;97.60
10660;DHT22;5378;53.206;13.316;2023-07-02T11:21:33;24.40;96.90
10660;DHT22;5378;53.206;13.316;2023-07-02T11:24:30;24.30;97.60
10660;DHT22;5378;53.206;13.316;2023-07-02T11:27:22;24.40;96.50
10660;DHT22;5378;53.206;13.316;2023-07-02T11:30:10;24.50;95.20
10660;DHT22;5378;53.206;13.316;2023-07-02T11:32:57;24.10;95.20
10660;DHT22;5378;53.206;13.316;2023-07-02T11:35:44;24.00;96.30
10660;DHT22;5378;53.206;13.316;2023-07-02T11:38:33;23.80;96.20
10660;DHT22;5378;53.206;13.316;2023-07-02T11:41:20;23.50;97.20
10660;DHT22;5378;53.206;13.316;2023-07-02T11:44:08;23.10;95.30
10660;DHT22;5378;53.206;13.316;2023-07-02T11:46:55;22.60;95.30
10660;DHT22;5378;53.206;13.316;2023-07-02T11:49:43;22.70;96.50
10660;DHT22;5378;53.206;13.316;2023-07-02T11:52:30;23.10;95.20
10660;DHT22;5378;53.206;13.316;2023-07-02T11:55:17;23.10;95.00
10660;DHT22;5378;53.206;13.316;2023-07-02T11:58:04;23.20;97.20
10660;DHT22;5378;53.206;13.316;2023-07-02T12:00:53;23.20;95.00
10660;DHT22;5378;53.206;13.316;2023-07-02T12:03:40;23.20;92.60
10660;DHT22;5378;53.206;13.316;2023-07-02T12:06:27;23.30;94.70
10660;DHT22;5378;53.206;13.316;2023-07-02T12:09:14;23.40;93.50
10660;DHT22;5378;53.206;13.316;2023-07-02T12:12:02;23.40;93.10
10660;DHT22;5378;53.206;13.316;2023-07-02T12:14:50;23.30;93.60
10660;DHT22;5378;53.206;13.316;2023-07-02T12:17:38;23.20;94.70
10660;DHT22;5378;53.206;13.316;2023-07-02T12:20:25;23.30;93.90
10660;DHT22;5378;53.206;13.316;2023-07-02T12:23:13;23.50;93.50
10660;DHT22;5378;53.206;13.316;2023-07-02T12:26:00;23.50;94.20
10660;DHT22;5378;53.206;13.316;2023-07-02T12:28:47;23.60;94.30
10660;DHT22;5378;53.206;13.316;2023-07-02T12:31:34;24.00;93.40
10660;DHT22;5378;53.206;13.316;2023-07-02T12:34:22;24.00;91.40
10660;DHT22;5378;53.206;13.316;2023-07-02T12:37:09;23.50;93.20
10660;DHT22;5378;53.206;13.316;2023-07-02T12:39:56;23.50;92.00
10660;DHT22;5378;53.206;13.316;2023-07-02T12:42:44;23.40;90.80
10660;DHT22;5378;53.206;13.316;2023-07-02T12:45:31;23.20;92.30
10660;DHT22;5378;53.206;13.316;2023-07-02T12:48:18;23.30;92.90
10660;DHT22;5378;53.206;13.316;2023-07-02T12:51:07;23.50;93.00
10660;DHT22;5378;53.206;13.316;2023-07-02T12:53:54;23.60;95.00
10660;DHT22;5378;53.206;13.316;2023-07-02T12:56:41;23.50;94.00
10660;DHT22;5378;53.206;13.316;2023-07-02T12:59:28;23.40;91.90
10660;DHT22;5378;53.206;13.316;2023-07-02T13:02:15;23.10;92.30
10660;DHT22;5378;53.206;13.316;2023-07-02T13:05:03;22.70;93.00
10660;DHT22;5378;53.206;13.316;2023-07-02T13:07:52;22.40;94.20
10660;DHT22;5378;53.206;13.316;2023-07-02T13:10:39;22.40;94.00
10660;DHT22;5378;53.206;13.316;2023-07-02T13:13:27;22.80;94.00
10660;DHT22;5378;53.206;13.316;2023-07-02T13:16:14;22.80;94.20
10660;DHT22;5378;53.206;13.316;2023-07-02T13:19:01;22.80;93.80
10660;DHT22;5378;53.206;13.316;2023-07-02T13:21:48;22.80;94.30
10660;DHT22;5378;53.206;13.316;2023-07-02T13:24:37;22.80;93.90
10660;DHT22;5378;53.206;13.316;2023-07-02T13:27:26;22.50;95.80
10660;DHT22;5378;53.206;13.316;2023-07-02T13:30:12;22.70;96.50
10660;DHT22;5378;53.206;13.316;2023-07-02T13:33:00;22.90;96.50
10660;DHT22;5378;53.206;13.316;2023-07-02T13:35:47;23.20;96.70
10660;DHT22;5378;53.206;13.316;2023-07-02T13:38:35;23.40;94.50
10660;DHT22;5378;53.206;13.316;2023-07-02T13:41:23;23.50;94.20
10660;DHT22;5378;53.206;13.316;2023-07-02T13:44:10;23.40;92.80
10660;DHT22;5378;53.206;13.316;2023-07-02T13:46:57;23.50;93.90
10660;DHT22;5378;53.206;13.316;2023-07-02T13:49:44;23.60;93.90
10660;DHT22;5378;53.206;13.316;2023-07-02T13:52:31;23.60;92.10
10660;DHT22;5378;53.206;13.316;2023-07-02T13:55:19;23.40;92.20
10660;DHT22;5378;53.206;13.316;2023-07-02T13:58:07;23.30;93.50
10660;DHT22;5378;53.206;13.316;2023-07-02T14:00:56;23.40;93.00
10660;DHT22;5378;53.206;13.316;2023-07-02T14:03:43;23.60;94.20
10660;DHT22;5378;53.206;13.316;2023-07-02T14:06:30;23.60;91.90
10660;DHT22;5378;53.206;13.316;2023-07-02T14:09:18;23.40;91.50
10660;DHT22;5378;53.206;13.316;2023-07-02T14:12:06;23.30;93.40
10660;DHT22;5378;53.206;13.316;2023-07-02T14:14:53;23.40;93.10
10660;DHT22;5378;53.206;13.316;2023-07-02T14:17:41;23.50;92.30
10660;DHT22;5378;53.206;13.316;2023-07-02T14:20:28;23.40;91.00
10660;DHT22;5378;53.206;13.316;2023-07-02T14:23:15;23.00;91.10
10660;DHT22;5378;53.206;13.316;2023-07-02T14:26:02;23.10;91.40
10660;DHT22;5378;53.206;13.316;2023-07-02T14:28:49;23.20;91.60
10660;DHT22;5378;53.206;13.316;2023-07-02T14:31:36;23.10;90.90
10660;DHT22;5378;53.206;13.316;2023-07-02T14:34:24;23.20;92.10
10660;DHT22;5378;53.206;13.316;2023-07-02T14:37:11;23.10;90.00
10660;DHT22;5378;53.206;13.316;2023-07-02T14:39:58;22.80;90.60
10660;DHT22;5378;53.206;13.316;2023-07-02T14:42:50;22.60;91.60
10660;DHT22;5378;53.206;13.316;2023-07-02T14:45:43;22.60;92.30
10660;DHT22;5378;53.206;13.316;2023-07-02T14:48:30;22.70;92.30
10660;DHT22;5378;53.206;13.316;2023-07-02T14:51:18;22.70;91.30
10660;DHT22;5378;53.206;13.316;2023-07-02T14:54:05;22.90;91.70
10660;DHT22;5378;53.206;13.316;2023-07-02T14:56:53;22.90;91.40
10660;DHT22;5378;53.206;13.316;2023-07-02T14:59:40;22.90;91.10
10660;DHT22;5378;53.206;13.316;2023-07-02T15:02:27;23.10;91.80
10660;DHT22;5378;53.206;13.316;2023-07-02T15:05:15;23.10;91.00
10660;DHT22;5378;53.206;13.316;2023-07-02T15:08:03;22.90;89.30
10660;DHT22;5378;53.206;13.316;2023-07-02T15:10:52;22.80;90.50
10660;DHT22;5378;53.206;13.316;2023-07-02T15:13:39;22.70;91.00
10660;DHT22;5378;53.206;13.316;2023-07-02T15:16:27;22.50;91.20
10660;DHT22;5378;53.206;13.316;2023-07-02T15:19:15;22.50;90.80
10660;DHT22;5378;53.206;13.316;2023-07-02T15:22:02;22.80;90.40
10660;DHT22;5378;53.206;13.316;2023-07-02T15:24:50;22.90;90.70
10660;DHT22;5378;53.206;13.316;2023-07-02T15:27:37;23.10;90.50
10660;DHT22;5378;53.206;13.316;2023-07-02T15:30:25;23.00;91.00
10660;DHT22;5378;53.206;13.316;2023-07-02T15:33:12;22.90;90.90
10660;DHT22;5378;53.206;13.316;2023-07-02T15:36:00;22.90;91.40
10660;DHT22;5378;53.206;13.316;2023-07-02T15:38:48;23.00;92.30
10660;DHT22;5378;53.206;13.316;2023-07-02T15:41:36;23.10;92.10
10660;DHT22;5378;53.206;13.316;2023-07-02T15:44:24;23.00;92.50
10660;DHT22;5378;53.206;13.316;2023-07-02T15:47:11;22.90;92.50
10660;DHT22;5378;53.206;13.316;2023-07-02T15:49:59;22.80;91.90
10660;DHT22;5378;53.206;13.316;2023-07-02T15:52:46;22.90;93.40
10660;DHT22;5378;53.206;13.316;2023-07-02T15:55:34;22.90;92.00
10660;DHT22;5378;53.206;13.316;2023-07-02T15:58:23;22.90;93.00
10660;DHT22;5378;53.206;13.316;2023-07-02T16:01:12;22.40;91.90
10660;DHT22;5378;53.206;13.316;2023-07-02T16:03:59;22.10;92.80
10660;DHT22;5378;53.206;13.316;2023-07-02T16:06:47;22.20;93.40
10660;DHT22;5378;53.206;13.316;2023-07-02T16:09:34;22.30;92.00
10660;DHT22;5378;53.206;13.316;2023-07-02T16:12:21;22.30;91.00
10660;DHT22;5378;53.206;13.316;2023-07-02T16:15:10;22.20;90.90
10660;DHT22;5378;53.206;13.316;2023-07-02T16:17:56;22.10;91.50
10660;DHT22;5378;53.206;13.316;2023-07-02T16:20:44;22.10;92.10
10660;DHT22;5378;53.206;13.316;2023-07-02T16:23:40;22.00;92.30
10660;DHT22;5378;53.206;13.316;2023-07-02T16:26:27;21.90;92.20
10660;DHT22;5378;53.206;13.316;2023-07-02T16:29:14;21.70;92.70
10660;DHT22;5378;53.206;13.316;2023-07-02T16:32:04;21.60;92.40
10660;DHT22;5378;53.206;13.316;2023-07-02T16:34:52;21.50;92.70
10660;DHT22;5378;53.206;13.316;2023-07-02T16:37:39;21.70;93.70
10660;DHT22;5378;53.206;13.316;2023-07-02T16:40:26;21.90;93.20
10660;DHT22;5378;53.206;13.316;2023-07-02T16:43:13;21.80;93.40
10660;DHT22;5378;53.206;13.316;2023-07-02T16:46:00;21.90;94.00
10660;DHT22;5378;53.206;13.316;2023-07-02T16:48:48;21.70;93.10
10660;DHT22;5378;53.206;13.316;2023-07-02T16:51:35;21.60;92.90
10660;DHT22;5378;53.206;13.316;2023-07-02T16:54:25;21.60;93.70
10660;DHT22;5378;53.206;13.316;2023-07-02T16:57:13;21.50;93.80
10660;DHT22;5378;53.206;13.316;2023-07-02T17:00:00;21.40;93.40
10660;DHT22;5378;53.206;13.316;2023-07-02T17:02:49;21.40;94.00
10660;DHT22;5378;53.206;13.316;2023-07-02T17:05:37;21.30;93.80
10660;DHT22;5378;53.206;13.316;2023-07-02T17:08:24;21.10;93.50
10660;DHT22;5378;53.206;13.316;2023-07-02T17:11:12;21.20;93.80
10660;DHT22;5378;53.206;13.316;2023-07-02T17:13:59;21.30;94.20
10660;DHT22;5378;53.206;13.316;2023-07-02T17:16:48;21.30;93.90
10660;DHT22;5378;53.206;13.316;2023-07-02T17:19:39;21.20;94.60
10660;DHT22;5378;53.206;13.316;2023-07-02T17:22:30;21.20;94.80
10660;DHT22;5378;53.206;13.316;2023-07-02T17:25:17;21.10;94.30
10660;DHT22;5378;53.206;13.316;2023-07-02T17:28:04;21.00;94.60
10660;DHT22;5378;53.206;13.316;2023-07-02T17:30:51;21.00;95.10
10660;DHT22;5378;53.206;13.316;2023-07-02T17:33:38;20.90;95.20
10660;DHT22;5378;53.206;13.316;2023-07-02T17:36:25;20.80;95.50
10660;DHT22;5378;53.206;13.316;2023-07-02T17:39:14;20.80;95.90